Lahij, Yemen
Current Conditions -  °F | °C
As of 1:00 PM on Monday 20 Oct 2014 (Local Time) from OYAA Reporting Station
Few Clouds Few Clouds  
Wind Chill: 90°   Ceiling: Unl
Heat Index: 90°   Visibility: 6mi
Dew Point: 57°   Wind: 18mph
Humidity: 33%   Direction: 130°SE
Pressure: 29.85"   Gusts: NA
Location:  13.06°N, 44.88°E
Report Text: OYAA 201000Z 13016KT 9999 FEW020 32/14 Q1011
Loading
Personal Weather Stations






























Interactive Weather Map
Tropical Storm Tracking
New forecast layout! Learn more

10-Day Weather Forecast

Advertisements
Track Severe Weather on mobile